Ballard, West Virginia
Current Conditions -  °F | °C
As of 3:55 AM on Saturday 22 Nov 2014 (Local Time) from KPSK Reporting Station
Clear Clear  
Wind Chill: 20°   Ceiling: Unl
Heat Index: 20°   Visibility: 10mi
Dew Point: 14°   Wind: 0mph
Humidity: 76%   Direction: NA
Pressure: 30.46"   Gusts: NA
Location:  37.47°N, 80.78°W
Report Text: KPSK 220855Z AUTO 00000KT 10SM CLR M06/M10 A3046 RMK AO2 T10641100
Loading
Personal Weather Stations






























Interactive Weather Map New forecast layout! Learn more

10-Day Weather Forecast

Advertisements
Track Severe Weather on mobile